createdAt,value
2017-08-14T00:00:33.068Z,73.30
2017-08-14T00:03:01.325Z,73.20
2017-08-14T00:05:29.571Z,73.40
2017-08-14T00:07:57.838Z,73.30
2017-08-14T00:10:28.650Z,73.20
2017-08-14T00:12:57.315Z,73.20
2017-08-14T00:15:25.588Z,73.40
2017-08-14T00:17:53.948Z,73.60
2017-08-14T00:20:23.617Z,73.70
2017-08-14T00:22:53.418Z,74.00
2017-08-14T00:25:22.810Z,74.10
2017-08-14T00:27:51.065Z,74.20
2017-08-14T00:30:19.314Z,74.30
2017-08-14T00:32:47.622Z,74.50
2017-08-14T00:35:16.197Z,74.50
2017-08-14T00:37:44.456Z,74.50
2017-08-14T00:40:12.698Z,74.50
2017-08-14T00:42:40.952Z,74.70
2017-08-14T00:45:09.208Z,74.60
2017-08-14T00:47:37.453Z,74.80
2017-08-14T00:50:05.740Z,75.10
2017-08-14T00:52:34.028Z,75.10
2017-08-14T00:55:02.277Z,75.20
2017-08-14T00:57:30.557Z,75.10
2017-08-14T00:59:58.877Z,75.20
2017-08-14T01:02:27.172Z,75.30
2017-08-14T01:04:55.987Z,75.40
2017-08-14T01:07:24.294Z,75.40
2017-08-14T01:09:52.501Z,75.30
2017-08-14T01:12:20.783Z,75.20
2017-08-14T01:14:49.104Z,75.20
2017-08-14T01:17:17.405Z,75.10
2017-08-14T01:19:45.647Z,74.90
2017-08-14T01:22:13.889Z,75.10
2017-08-14T01:24:42.261Z,75.30
2017-08-14T01:27:10.573Z,75.40
2017-08-14T01:29:40.190Z,75.50
2017-08-14T01:32:09.249Z,75.60
2017-08-14T01:34:37.548Z,75.40
2017-08-14T01:37:05.838Z,75.40
2017-08-14T01:39:34.184Z,75.50
2017-08-14T01:42:02.841Z,75.70
2017-08-14T01:44:31.098Z,75.70
2017-08-14T01:47:00.389Z,75.70
2017-08-14T01:49:28.647Z,76.10
2017-08-14T01:51:56.916Z,75.90
2017-08-14T01:54:25.201Z,75.70
2017-08-14T01:56:53.467Z,75.70
2017-08-14T01:59:21.707Z,75.70
2017-08-14T02:01:49.939Z,75.70
2017-08-14T02:04:18.263Z,75.70
2017-08-14T02:06:47.788Z,75.60
2017-08-14T02:09:16.061Z,75.90
2017-08-14T02:11:44.368Z,76.00
2017-08-14T02:14:12.628Z,76.10
2017-08-14T02:16:40.909Z,76.20
2017-08-14T02:19:09.185Z,76.20
2017-08-14T02:21:37.425Z,76.20
2017-08-14T02:24:05.710Z,76.10
2017-08-14T02:26:33.960Z,76.20
2017-08-14T02:29:02.239Z,76.30
2017-08-14T02:31:30.469Z,76.20
2017-08-14T02:33:58.736Z,76.40
2017-08-14T02:36:27.831Z,76.20
2017-08-14T02:38:56.045Z,76.30
2017-08-14T02:41:24.338Z,76.40
2017-08-14T02:43:52.574Z,76.60
2017-08-14T02:46:21.523Z,76.80
2017-08-14T02:48:49.744Z,76.80
2017-08-14T02:51:18.140Z,76.80
2017-08-14T02:53:46.501Z,76.80
2017-08-14T02:56:15.535Z,76.70
2017-08-14T02:58:43.845Z,77.00
2017-08-14T03:01:12.121Z,76.90
2017-08-14T03:03:40.438Z,76.90
2017-08-14T03:06:08.707Z,77.00
2017-08-14T03:08:36.937Z,77.10
2017-08-14T03:11:05.692Z,77.10
2017-08-14T03:13:33.904Z,77.20
2017-08-14T03:16:02.230Z,77.30
2017-08-14T03:18:30.944Z,77.40
2017-08-14T03:20:59.207Z,77.60
2017-08-14T03:23:27.416Z,77.60
2017-08-14T03:25:55.689Z,77.60
2017-08-14T03:28:24.032Z,77.70
2017-08-14T03:30:52.281Z,77.60
2017-08-14T03:33:20.839Z,77.80
2017-08-14T03:35:49.104Z,77.80
2017-08-14T03:38:17.340Z,77.80
2017-08-14T03:40:45.607Z,77.70
2017-08-14T03:43:13.869Z,77.80
2017-08-14T03:45:42.119Z,77.70
2017-08-14T03:48:10.414Z,77.50
2017-08-14T03:50:38.656Z,77.60
2017-08-14T03:53:07.653Z,77.80
2017-08-14T03:55:35.979Z,78.00
2017-08-14T03:58:04.201Z,78.10
2017-08-14T04:00:32.581Z,78.10
2017-08-14T04:03:02.352Z,77.80
2017-08-14T04:05:31.300Z,78.00
2017-08-14T04:07:59.879Z,78.00
2017-08-14T04:10:28.171Z,77.80
2017-08-14T04:12:56.469Z,78.10
2017-08-14T04:15:24.776Z,78.00
2017-08-14T04:17:54.136Z,78.10
2017-08-14T04:20:22.399Z,78.10
2017-08-14T04:22:50.631Z,78.80
2017-08-14T04:25:18.911Z,78.00
2017-08-14T04:27:47.924Z,78.10
2017-08-14T04:30:16.145Z,77.90
2017-08-14T04:32:44.409Z,77.90
2017-08-14T04:35:12.722Z,78.20
2017-08-14T04:37:41.125Z,78.10
2017-08-14T04:40:09.345Z,78.10
2017-08-14T04:42:37.662Z,78.10
2017-08-14T04:45:06.288Z,78.00
2017-08-14T04:47:34.569Z,78.10
2017-08-14T04:50:05.297Z,78.00
2017-08-14T04:52:33.904Z,77.80
2017-08-14T04:55:02.198Z,77.50
2017-08-14T04:57:30.574Z,77.50
2017-08-14T04:59:58.793Z,77.60
2017-08-14T05:02:27.098Z,77.60
2017-08-14T05:04:55.560Z,77.80
2017-08-14T05:07:23.802Z,77.80
2017-08-14T05:09:52.113Z,77.50
2017-08-14T05:12:20.387Z,77.50
2017-08-14T05:14:48.746Z,77.50
2017-08-14T05:17:16.989Z,77.50
2017-08-14T05:19:45.273Z,77.50
2017-08-14T05:22:13.626Z,77.50
2017-08-14T05:24:41.869Z,77.20
2017-08-14T05:27:10.179Z,76.80
2017-08-14T05:29:38.486Z,76.70
2017-08-14T05:32:06.714Z,76.90
2017-08-14T05:34:34.988Z,76.00
2017-08-14T05:37:03.752Z,75.20
2017-08-14T05:39:31.997Z,75.00
2017-08-14T05:42:00.233Z,74.80
2017-08-14T05:44:28.512Z,74.80
2017-08-14T05:46:56.790Z,74.10
2017-08-14T05:49:26.169Z,73.50
2017-08-14T05:51:54.452Z,73.40
2017-08-14T05:54:22.783Z,73.00
2017-08-14T05:56:51.611Z,72.20
2017-08-14T05:59:23.955Z,71.30
2017-08-14T06:01:52.323Z,70.70
2017-08-14T06:04:21.951Z,70.50
2017-08-14T06:06:50.206Z,69.90
2017-08-14T06:09:18.549Z,69.60
2017-08-14T06:11:46.878Z,69.20
2017-08-14T06:14:15.607Z,68.50
2017-08-14T06:16:43.947Z,67.90
2017-08-14T06:19:12.206Z,67.60
2017-08-14T06:21:40.448Z,67.30
2017-08-14T06:24:08.682Z,67.00
2017-08-14T06:26:37.009Z,67.00
2017-08-14T06:29:05.299Z,66.80
2017-08-14T06:31:33.655Z,67.10
2017-08-14T06:34:02.003Z,66.60
2017-08-14T06:36:31.097Z,67.30
2017-08-14T06:38:59.343Z,66.90
2017-08-14T06:42:53.224Z,65.00
2017-08-14T06:45:39.256Z,64.60
2017-08-14T06:48:10.500Z,64.80
2017-08-14T06:50:39.569Z,64.70
2017-08-14T06:53:09.593Z,64.70
2017-08-14T06:55:37.878Z,63.60
2017-08-14T06:58:06.170Z,63.30
2017-08-14T07:00:34.427Z,63.10
2017-08-14T07:03:02.714Z,60.80
2017-08-14T07:05:31.974Z,60.90
2017-08-14T07:08:01.181Z,59.40
2017-08-14T07:10:29.923Z,59.40
2017-08-14T07:12:58.820Z,59.20
2017-08-14T07:15:27.065Z,59.10
2017-08-14T07:17:55.394Z,57.80
2017-08-14T07:20:23.946Z,57.90
2017-08-14T07:22:52.236Z,57.40
2017-08-14T07:25:21.454Z,55.90
2017-08-14T07:27:49.802Z,55.90
2017-08-14T07:30:18.204Z,55.90
2017-08-14T07:32:46.833Z,55.00
2017-08-14T07:35:15.525Z,54.10
2017-08-14T07:37:43.996Z,53.80
2017-08-14T07:40:14.974Z,53.90
2017-08-14T07:42:44.467Z,53.80
2017-08-14T07:45:12.841Z,53.80
2017-08-14T07:47:41.098Z,53.60
2017-08-14T07:50:09.732Z,53.70
2017-08-14T07:52:38.848Z,52.70
2017-08-14T07:55:07.087Z,52.80
2017-08-14T07:57:35.357Z,53.00
2017-08-14T08:00:03.732Z,53.50
2017-08-14T08:02:32.857Z,52.90
2017-08-14T08:05:02.075Z,52.30
2017-08-14T08:07:30.472Z,52.30
2017-08-14T08:09:58.769Z,51.00
2017-08-14T08:12:27.211Z,50.70
2017-08-14T08:14:55.517Z,50.20
2017-08-14T08:17:23.796Z,49.30
2017-08-14T08:19:52.030Z,48.40
2017-08-14T08:22:20.275Z,48.70
2017-08-14T08:24:49.462Z,48.80
2017-08-14T08:27:17.701Z,48.80
2017-08-14T08:29:50.590Z,49.40
2017-08-14T08:32:19.796Z,50.50
2017-08-14T08:34:48.198Z,50.50
2017-08-14T08:37:16.532Z,51.20
2017-08-14T08:39:44.979Z,51.70
2017-08-14T08:42:13.255Z,51.90
2017-08-14T08:44:41.643Z,51.40
2017-08-14T08:47:11.362Z,51.70
2017-08-14T08:49:39.828Z,51.90
2017-08-14T08:52:08.934Z,51.70
2017-08-14T08:54:37.352Z,51.50
2017-08-14T08:57:05.692Z,51.50
2017-08-14T08:59:34.281Z,51.60
2017-08-14T09:02:02.748Z,52.00
2017-08-14T09:04:31.760Z,53.30
2017-08-14T09:07:00.022Z,53.20
2017-08-14T09:09:28.412Z,53.20
2017-08-14T09:11:57.853Z,53.30
2017-08-14T09:14:26.094Z,54.50
2017-08-14T09:16:54.495Z,54.20
2017-08-14T09:19:22.912Z,53.70
2017-08-14T09:21:51.843Z,53.60
2017-08-14T09:24:20.133Z,52.70
2017-08-14T09:26:48.427Z,52.80
2017-08-14T09:29:18.485Z,53.00
2017-08-14T09:31:46.882Z,52.70
2017-08-14T09:34:15.119Z,53.10
2017-08-14T09:36:44.174Z,53.60
2017-08-14T09:39:12.433Z,53.60
2017-08-14T09:41:40.722Z,53.30
2017-08-14T09:44:09.039Z,53.20
2017-08-14T09:46:37.263Z,53.80
2017-08-14T09:49:05.677Z,53.80
2017-08-14T09:51:33.954Z,53.90
2017-08-14T09:54:02.253Z,54.70
2017-08-14T09:56:30.479Z,54.10
2017-08-14T09:58:58.809Z,54.00
2017-08-14T10:01:27.097Z,53.70
2017-08-14T10:03:55.351Z,53.50
2017-08-14T10:06:25.506Z,53.20
2017-08-14T10:08:53.767Z,53.20
2017-08-14T10:11:23.314Z,53.20
2017-08-14T10:13:51.571Z,52.50
2017-08-14T10:16:19.838Z,52.20
2017-08-14T10:18:48.680Z,52.00
2017-08-14T10:21:18.506Z,50.80
2017-08-14T10:23:48.068Z,50.80
2017-08-14T10:26:16.540Z,50.60
2017-08-14T10:28:44.798Z,50.90
2017-08-14T10:31:14.872Z,51.20
2017-08-14T10:33:44.036Z,51.00
2017-08-14T10:36:19.500Z,51.00
2017-08-14T10:38:57.411Z,51.00
2017-08-14T10:41:27.664Z,50.20
2017-08-14T10:43:59.258Z,49.80
2017-08-14T10:46:30.334Z,48.90
2017-08-14T10:48:58.695Z,48.00
2017-08-14T10:51:26.997Z,46.60
2017-08-14T10:53:55.273Z,47.20
2017-08-14T10:56:23.536Z,47.00
2017-08-14T10:58:52.561Z,47.30
2017-08-14T11:01:20.805Z,47.30
2017-08-14T11:03:50.050Z,46.50
2017-08-14T11:06:19.225Z,46.50
2017-08-14T11:08:47.639Z,46.20
2017-08-14T11:11:16.007Z,45.60
2017-08-14T11:13:44.249Z,44.40
2017-08-14T11:16:12.748Z,43.70
2017-08-14T11:18:41.094Z,43.10
2017-08-14T11:21:10.390Z,41.10
2017-08-14T11:23:41.456Z,40.20
2017-08-14T11:26:09.730Z,40.10
2017-08-14T11:28:38.001Z,38.60
2017-08-14T11:31:07.044Z,35.30
2017-08-14T11:33:37.078Z,35.20
2017-08-14T11:36:05.378Z,34.60
2017-08-14T11:38:34.142Z,34.20
2017-08-14T11:41:02.719Z,35.00
2017-08-14T11:43:31.207Z,35.40
2017-08-14T11:45:59.649Z,35.20
2017-08-14T11:48:28.956Z,34.20
2017-08-14T11:50:57.312Z,34.20
2017-08-14T11:53:25.720Z,33.80
2017-08-14T11:55:55.478Z,33.20
2017-08-14T11:58:24.813Z,31.70
2017-08-14T12:00:53.126Z,31.60
2017-08-14T12:03:22.525Z,31.40
2017-08-14T12:05:51.077Z,32.50
2017-08-14T12:08:19.502Z,33.30
2017-08-14T12:10:48.686Z,36.50
2017-08-14T12:13:18.106Z,39.00
2017-08-14T12:15:47.260Z,40.40
2017-08-14T12:18:17.407Z,40.30
2017-08-14T12:20:46.480Z,41.50
2017-08-14T12:23:16.480Z,43.60
2017-08-14T12:25:45.653Z,43.60
2017-08-14T12:28:14.837Z,44.10
2017-08-14T12:30:43.359Z,44.30
2017-08-14T12:33:11.765Z,44.40
2017-08-14T12:35:40.266Z,43.80
2017-08-14T12:38:09.740Z,44.30
2017-08-14T12:40:38.404Z,44.30
2017-08-14T12:43:06.950Z,44.50
2017-08-14T12:45:35.611Z,44.80
2017-08-14T12:48:04.776Z,47.30
2017-08-14T12:50:33.038Z,47.30
2017-08-14T12:53:02.506Z,47.70
2017-08-14T12:55:33.608Z,48.00
2017-08-14T12:58:02.864Z,48.10
2017-08-14T13:00:32.139Z,48.50
2017-08-14T13:03:01.281Z,48.50
2017-08-14T13:05:29.957Z,48.50
2017-08-14T13:07:58.273Z,48.20
2017-08-14T13:10:26.845Z,49.20
2017-08-14T13:12:55.578Z,49.10
2017-08-14T13:15:24.177Z,49.60
2017-08-14T13:17:52.672Z,49.40
2017-08-14T13:20:20.989Z,49.80
2017-08-14T13:22:50.071Z,50.00
2017-08-14T13:25:18.329Z,50.00
2017-08-14T13:27:46.897Z,49.90
2017-08-14T13:30:15.531Z,49.40
2017-08-14T13:32:44.602Z,49.10
2017-08-14T13:35:13.841Z,48.60
2017-08-14T13:37:43.491Z,48.60
2017-08-14T13:40:11.893Z,49.00
2017-08-14T13:42:40.582Z,48.40
2017-08-14T13:45:10.667Z,49.60
2017-08-14T13:47:39.376Z,49.20
2017-08-14T13:50:07.654Z,49.40
2017-08-14T13:52:35.928Z,49.00
2017-08-14T13:55:04.494Z,49.50
2017-08-14T13:57:32.814Z,49.20
2017-08-14T14:03:12.293Z,50.00
2017-08-14T14:05:42.164Z,50.30
2017-08-14T14:08:10.469Z,51.00
2017-08-14T14:10:38.916Z,51.60
2017-08-14T14:13:07.149Z,50.60
2017-08-14T14:15:35.490Z,50.60
2017-08-14T14:18:03.974Z,50.70
2017-08-14T14:20:33.000Z,50.00
2017-08-14T14:23:01.269Z,50.00
2017-08-14T14:25:29.697Z,50.90
2017-08-14T14:27:58.130Z,50.90
2017-08-14T14:30:32.864Z,51.30
2017-08-14T14:33:01.138Z,51.70
2017-08-14T14:35:29.758Z,50.60
2017-08-14T14:37:58.810Z,51.10
2017-08-14T14:40:27.186Z,50.60
2017-08-14T14:42:55.646Z,49.90
2017-08-14T14:45:25.013Z,49.40
2017-08-14T14:47:53.380Z,49.40
2017-08-14T14:50:21.650Z,49.80
2017-08-14T14:52:49.879Z,49.40
2017-08-14T14:55:18.564Z,49.40
2017-08-14T14:57:46.929Z,50.30
2017-08-14T15:00:16.068Z,50.30
2017-08-14T15:02:44.479Z,50.30
2017-08-14T15:05:13.284Z,49.60
2017-08-14T15:07:41.926Z,49.30
2017-08-14T15:10:10.206Z,49.40
2017-08-14T15:12:38.561Z,50.10
2017-08-14T15:15:06.809Z,49.80
2017-08-14T15:17:36.011Z,49.80
2017-08-14T15:20:06.920Z,49.40
2017-08-14T15:22:36.519Z,50.20
2017-08-14T15:25:04.867Z,50.10
2017-08-14T15:27:33.318Z,50.20
2017-08-14T15:30:02.429Z,50.90
2017-08-14T15:32:30.671Z,50.90
2017-08-14T15:34:59.739Z,51.10
2017-08-14T15:37:27.957Z,51.30
2017-08-14T15:39:56.332Z,51.80
2017-08-14T15:42:24.887Z,52.10
2017-08-14T15:44:53.513Z,51.90
2017-08-14T15:47:21.773Z,51.80
2017-08-14T15:49:50.264Z,51.60
2017-08-14T15:52:18.565Z,51.40
2017-08-14T15:54:46.818Z,50.20
2017-08-14T15:57:15.173Z,50.50
2017-08-14T15:59:43.561Z,50.40
2017-08-14T16:02:11.836Z,51.20
2017-08-14T16:04:41.020Z,50.80
2017-08-14T16:07:09.296Z,50.80
2017-08-14T16:09:38.342Z,50.90
2017-08-14T16:12:06.590Z,50.80
2017-08-14T16:14:34.995Z,51.00
2017-08-14T16:17:03.323Z,50.90
2017-08-14T16:19:47.297Z,51.10
2017-08-14T16:22:15.544Z,51.40
2017-08-14T16:24:45.017Z,51.40
2017-08-14T16:27:13.278Z,51.90
2017-08-14T16:29:41.624Z,51.50
2017-08-14T16:32:09.872Z,51.70
2017-08-14T16:34:38.155Z,51.70
2017-08-14T16:37:07.180Z,52.50
2017-08-14T16:39:35.447Z,52.40
2017-08-14T16:42:04.725Z,52.80
2017-08-14T16:44:33.005Z,52.80
2017-08-14T16:47:01.262Z,52.40
2017-08-14T16:49:31.488Z,53.00
2017-08-14T16:51:59.772Z,53.00
2017-08-14T16:54:28.020Z,53.00
2017-08-14T16:56:57.066Z,53.20
2017-08-14T16:59:25.312Z,53.20
2017-08-14T17:01:53.816Z,53.00
2017-08-14T17:04:22.066Z,53.20
2017-08-14T17:06:50.498Z,53.60
2017-08-14T17:09:18.862Z,53.70
2017-08-14T17:11:47.252Z,53.60
2017-08-14T17:14:17.517Z,53.60
2017-08-14T17:16:47.064Z,53.60
2017-08-14T17:19:16.474Z,53.90
2017-08-14T17:21:45.285Z,53.90
2017-08-14T17:24:14.208Z,54.00
2017-08-14T17:26:43.311Z,54.10
2017-08-14T17:29:11.900Z,54.10
2017-08-14T17:31:40.372Z,53.70
2017-08-14T17:34:08.618Z,53.50
2017-08-14T17:36:37.676Z,54.10
2017-08-14T17:39:05.942Z,54.10
2017-08-14T17:41:34.223Z,54.10
2017-08-14T17:44:02.566Z,54.10
2017-08-14T17:46:30.825Z,54.20
2017-08-14T17:48:59.841Z,54.30
2017-08-14T17:51:28.117Z,54.30
2017-08-14T17:53:56.408Z,54.40
2017-08-14T17:56:24.704Z,54.50
2017-08-14T17:58:52.977Z,54.50
2017-08-14T18:01:21.221Z,54.80
2017-08-14T18:03:49.590Z,55.00
2017-08-14T18:06:17.837Z,55.30
2017-08-14T18:08:46.140Z,54.90
2017-08-14T18:11:14.375Z,55.20
2017-08-14T18:13:42.666Z,55.40
2017-08-14T18:16:11.098Z,55.40
2017-08-14T18:18:39.610Z,56.00
2017-08-14T18:21:09.071Z,55.40
2017-08-14T18:23:37.429Z,55.90
2017-08-14T18:26:05.960Z,55.50
2017-08-14T18:28:35.704Z,55.60
2017-08-14T18:31:03.964Z,55.70
2017-08-14T18:33:33.681Z,56.00
2017-08-14T18:36:02.747Z,56.80
2017-08-14T18:38:31.200Z,56.30
2017-08-14T18:40:59.573Z,56.60
2017-08-14T18:43:27.850Z,56.60
2017-08-14T18:45:56.102Z,56.80
2017-08-14T18:48:24.897Z,57.20
2017-08-14T18:50:54.017Z,57.70
2017-08-14T18:53:22.397Z,57.60
2017-08-14T18:55:50.652Z,57.50
2017-08-14T18:58:18.893Z,57.60
2017-08-14T19:00:47.992Z,57.40
2017-08-14T19:03:17.082Z,58.20
2017-08-14T19:05:45.337Z,57.60
2017-08-14T19:08:15.235Z,57.80
2017-08-14T19:10:42.108Z,57.70
2017-08-14T19:13:10.377Z,58.00
2017-08-14T19:15:38.863Z,58.10
2017-08-14T19:18:07.150Z,58.20
2017-08-14T19:20:35.447Z,58.20
2017-08-14T19:23:03.797Z,58.50
2017-08-14T19:25:32.092Z,58.50
2017-08-14T19:28:00.453Z,58.70
2017-08-14T19:30:28.792Z,59.20
2017-08-14T19:32:57.056Z,58.80
2017-08-14T19:35:25.309Z,58.80
2017-08-14T19:37:53.691Z,59.00
2017-08-14T19:40:21.981Z,59.40
2017-08-14T19:42:50.434Z,60.10
2017-08-14T19:45:19.437Z,62.50
2017-08-14T19:47:47.692Z,61.50
2017-08-14T19:50:16.743Z,62.10
2017-08-14T19:52:45.020Z,62.10
2017-08-14T19:55:13.610Z,62.40
2017-08-14T19:57:41.879Z,62.70
2017-08-14T20:00:10.163Z,63.00
2017-08-14T20:02:38.469Z,63.20
2017-08-14T20:05:06.807Z,63.10
2017-08-14T20:07:35.961Z,63.60
2017-08-14T20:10:04.297Z,63.70
2017-08-14T20:12:33.271Z,64.10
2017-08-14T20:15:01.569Z,64.40
2017-08-14T20:17:29.807Z,64.90
2017-08-14T20:19:58.121Z,65.10
2017-08-14T20:22:26.366Z,65.40
2017-08-14T20:24:54.720Z,65.50
2017-08-14T20:27:22.981Z,65.90
2017-08-14T20:29:51.453Z,65.80
2017-08-14T20:32:19.733Z,65.80
2017-08-14T20:34:48.018Z,65.80
2017-08-14T20:37:16.315Z,65.90
2017-08-14T20:39:44.706Z,65.90
2017-08-14T20:42:13.198Z,66.10
2017-08-14T20:44:43.407Z,66.10
2017-08-14T20:47:13.783Z,66.10
2017-08-14T20:49:42.157Z,66.80
2017-08-14T20:52:11.241Z,66.00
2017-08-14T20:54:39.532Z,66.00
2017-08-14T20:57:08.971Z,66.80
2017-08-14T20:59:37.330Z,66.30
2017-08-14T21:02:05.700Z,66.50
2017-08-14T21:04:34.040Z,66.50
2017-08-14T21:07:02.302Z,66.50
2017-08-14T21:09:30.800Z,66.60
2017-08-14T21:11:59.095Z,66.60
2017-08-14T21:14:28.272Z,67.00
2017-08-14T21:16:56.565Z,67.00
2017-08-14T21:19:25.718Z,67.40
2017-08-14T21:21:53.949Z,67.20
2017-08-14T21:24:23.454Z,67.30
2017-08-14T21:26:52.501Z,67.40
2017-08-14T21:29:20.756Z,67.40
2017-08-14T21:31:50.303Z,67.60
2017-08-14T21:34:18.735Z,67.40
2017-08-14T21:36:48.172Z,68.00
2017-08-14T21:39:16.469Z,67.90
2017-08-14T21:41:44.866Z,67.80
2017-08-14T21:44:13.184Z,67.90
2017-08-14T21:46:41.450Z,67.90
2017-08-14T21:49:09.886Z,67.80
2017-08-14T21:51:38.301Z,68.10
2017-08-14T21:54:07.638Z,68.30
2017-08-14T21:56:36.110Z,68.30
2017-08-14T21:59:04.693Z,68.40
2017-08-14T22:01:33.050Z,68.50
2017-08-14T22:04:01.334Z,68.60
2017-08-14T22:06:29.610Z,68.60
2017-08-14T22:08:58.116Z,68.90
2017-08-14T22:11:26.496Z,68.60
2017-08-14T22:13:54.728Z,69.00
2017-08-14T22:16:23.209Z,69.10
2017-08-14T22:18:51.564Z,68.90
2017-08-14T22:21:20.024Z,69.00
2017-08-14T22:23:49.026Z,69.30
2017-08-14T22:26:18.273Z,69.30
2017-08-14T22:28:46.528Z,69.30
2017-08-14T22:31:14.768Z,69.10
2017-08-14T22:33:43.082Z,69.10
2017-08-14T22:36:11.401Z,69.20
2017-08-14T22:38:40.658Z,70.30
2017-08-14T22:41:08.971Z,69.20
2017-08-14T22:43:37.473Z,69.20
2017-08-14T22:46:05.908Z,69.20
2017-08-14T22:48:34.178Z,69.30
2017-08-14T22:51:02.610Z,69.20
2017-08-14T22:53:31.850Z,69.10
2017-08-14T22:56:00.223Z,69.90
2017-08-14T22:58:28.465Z,69.20
2017-08-14T23:00:56.750Z,69.30
2017-08-14T23:03:25.789Z,69.40
2017-08-14T23:05:54.953Z,69.40
2017-08-14T23:08:24.869Z,69.50
2017-08-14T23:10:53.173Z,69.70
2017-08-14T23:13:22.063Z,70.40
2017-08-14T23:15:50.344Z,69.70
2017-08-14T23:18:19.849Z,69.80
2017-08-14T23:20:48.101Z,69.80
2017-08-14T23:23:16.358Z,69.90
2017-08-14T23:25:44.647Z,69.90
2017-08-14T23:28:13.025Z,70.10
2017-08-14T23:30:41.400Z,70.30
2017-08-14T23:33:09.824Z,70.20
2017-08-14T23:35:38.105Z,70.20
2017-08-14T23:38:07.237Z,70.90
2017-08-14T23:40:35.630Z,70.30
2017-08-14T23:43:04.364Z,70.30
2017-08-14T23:45:33.772Z,70.50
2017-08-14T23:48:02.925Z,71.30
2017-08-14T23:50:31.209Z,71.20
2017-08-14T23:52:59.572Z,71.40
2017-08-14T23:55:27.930Z,71.50
2017-08-14T23:57:57.050Z,71.80
